Weather History for KISQ - January, 2014

Change the Weather History Date:

Friday, January 3, 2014

  Actual Average Record
Temperature  
Mean Temperature 12 °F -  
Max Temperature 28 °F 25 °F 43 °F (1950)
Min Temperature -5 °F 9 °F -11 °F (1979)
Degree Days  
Heating Degree Days 54    
Moisture  
Dew Point 4 °F    
Average Humidity 78    
Maximum Humidity 91    
Minimum Humidity 61    
Precipitation  
Precipitation 0.00 in - - ()
Sea Level Pressure  
Sea Level Pressure 30.07 in    
Wind  
Wind Speed 11 mph (WSW)    
Max Wind Speed 37 mph    
Max Gust Speed 54 mph    
Visibility 7 miles    
Events Snow    
Averages and records for this station are not official NWS values.
T = Trace of Precipitation, MM = Missing Value Source: NWS Daily Summary

Daily Weather History Graph

Daily Weather History Graph

Search for Another Location

Airport or City:

Trip Planner

Search our weather history database for the weather conditions in past years. The results will help you decide how hot, cold, wet, or windy it might be!

Date:

Astronomy

Jan. 03, 2014 Rise Set
Actual Time 8:26 AM EST 5:12 PM EST
Civil Twilight 7:52 AM EST 5:46 PM EST
Nautical Twilight 7:14 AM EST 6:24 PM EST
Astronomical Twilight 6:38 AM EST 7:00 PM EST
Moon 9:42 AM EST (1/3) 8:31 PM EST (1/3)
Length of Visible Light 9h 54m
Length of Day
8h 45m
Waxing Crescent, 8% of the Moon is Illuminated
Jan 3
Waxing Crescent
Jan 7
First Quarter
Jan 15
Full
Jan 24
Last Quarter
Jan 30
New

Hourly Weather History & Observations

Time (EST) Temp. Windchill Dew Point Humidity Pressure Visibility Wind Dir Wind Speed Gust Speed Precip Events Conditions
12:14 AM -1.3 °F -16.8 °F -5.8 °F 81% 30.30 in 10.0 mi WNW 9.2 mph - N/A   Clear
12:32 AM -1.3 °F -17.8 °F -6.2 °F 80% 30.30 in 10.0 mi West 10.4 mph - N/A   Clear
12:55 AM -1.3 °F -16.8 °F -6.2 °F 80% 30.29 in 10.0 mi WNW 9.2 mph - N/A   Clear
1:14 AM -1.7 °F -17.3 °F -6.5 °F 80% 30.29 in 10.0 mi WNW 9.2 mph - N/A   Clear
1:34 AM -0.6 °F -16.9 °F -5.4 °F 80% 30.30 in 10.0 mi WNW 10.4 mph - N/A   Clear
1:55 AM -1.8 °F -13.7 °F -6.7 °F 80% 30.30 in 10.0 mi West 5.8 mph - N/A   Clear
2:12 AM -3.5 °F -17.1 °F -8.0 °F 81% 30.30 in 10.0 mi West 6.9 mph - N/A   Clear
2:33 AM -3.1 °F -17.9 °F -7.4 °F 82% 30.31 in 10.0 mi West 8.1 mph - N/A   Clear
2:54 AM -1.1 °F -17.6 °F -6.0 °F 80% 30.31 in 10.0 mi WNW 10.4 mph - N/A   Clear
3:15 AM -2.2 °F -18.0 °F -7.6 °F 78% 30.31 in 10.0 mi West 9.2 mph - N/A   Clear
3:35 AM -2.2 °F -18.0 °F -7.6 °F 78% 30.32 in 10.0 mi WNW 9.2 mph - N/A   Clear
3:54 AM -3.3 °F -16.9 °F -8.5 °F 78% 30.31 in 10.0 mi WNW 6.9 mph - N/A   Clear
4:15 AM -4.0 °F -17.8 °F -8.9 °F 80% 30.31 in 10.0 mi West 6.9 mph - N/A   Clear
4:34 AM -4.0 °F -19.0 °F -8.7 °F 80% 30.30 in 10.0 mi West 8.1 mph - N/A   Clear
4:54 AM -4.5 °F -19.7 °F -9.6 °F 79% 30.30 in 10.0 mi WNW 8.1 mph - N/A   Clear
5:15 AM -5.3 °F -17.8 °F -10.1 °F 80% 30.29 in 10.0 mi WNW 5.8 mph - N/A   Clear
5:34 AM -3.8 °F -16.1 °F -8.9 °F 79% 30.28 in 10.0 mi WNW 5.8 mph - N/A   Clear
5:54 AM -4.4 °F -16.7 °F -8.7 °F 82% 30.28 in 10.0 mi WNW 5.8 mph - N/A   Clear
6:15 AM -5.6 °F -18.2 °F -10.3 °F 80% 30.27 in 10.0 mi WNW 5.8 mph - N/A   Clear
6:34 AM -5.4 °F -19.5 °F -10.3 °F 80% 30.27 in 10.0 mi West 6.9 mph - N/A   Clear
6:55 AM -5.8 °F -19.9 °F -10.7 °F 79% 30.27 in 10.0 mi West 6.9 mph - N/A   Clear
7:14 AM -3.8 °F -17.5 °F -8.7 °F 80% 30.27 in 10.0 mi West 6.9 mph - N/A   Clear
7:34 AM -3.6 °F -15.9 °F -9.0 °F 78% 30.27 in 10.0 mi West 5.8 mph - N/A   Clear
7:53 AM -3.5 °F - -8.5 °F 79% 30.26 in 10.0 mi Calm Calm - N/A   Clear
8:15 AM -3.3 °F -11.6 °F -8.0 °F 80% 30.26 in 10.0 mi WSW 3.5 mph - N/A   Clear
8:34 AM -2.2 °F -14.2 °F -7.6 °F 78% 30.26 in 10.0 mi West 5.8 mph - N/A   Clear
8:54 AM -1.5 °F -11.6 °F -6.9 °F 78% 30.26 in 10.0 mi West 4.6 mph - N/A   Clear
9:15 AM -1.1 °F -9.1 °F -6.7 °F 77% 30.25 in 10.0 mi SW 3.5 mph - N/A   Clear
9:34 AM 0.3 °F -9.5 °F -5.8 °F 75% 30.24 in 10.0 mi SSW 4.6 mph - N/A   Mostly Cloudy
9:55 AM 1.9 °F -7.6 °F -4.5 °F 74% 30.25 in 10.0 mi WSW 4.6 mph - N/A   Overcast
10:12 AM 2.8 °F -6.6 °F -4.4 °F 72% 30.25 in 10.0 mi WSW 4.6 mph - N/A   Overcast
10:34 AM 4.3 °F -4.9 °F -3.1 °F 71% 30.23 in 10.0 mi SW 4.6 mph - N/A   Mostly Cloudy
10:55 AM 5.7 °F -3.2 °F -1.5 °F 72% 30.22 in 10.0 mi SW 4.6 mph - N/A   Clear
11:14 AM 7.5 °F -6.0 °F -1.1 °F 68% 30.20 in 10.0 mi SW 9.2 mph - N/A   Clear
11:34 AM 8.2 °F -3.0 °F 0.1 °F 70% 30.19 in 10.0 mi SW 6.9 mph - N/A   Scattered Clouds
11:55 AM 9.1 °F -1.9 °F 0.5 °F 68% 30.18 in 10.0 mi SW 6.9 mph - N/A   Scattered Clouds
12:14 PM 9.5 °F -4.4 °F 1.4 °F 70% 30.17 in 10.0 mi SW 10.4 mph - N/A   Overcast
12:34 PM 10.0 °F -2.9 °F 0.9 °F 66% 30.14 in 10.0 mi SW 9.2 mph 16.1 mph N/A   Overcast
12:55 PM 11.1 °F -3.2 °F 1.4 °F 65% 30.11 in 10.0 mi SW 11.5 mph 23.0 mph N/A   Mostly Cloudy
1:14 PM 12.6 °F -1.4 °F 1.4 °F 61% 30.09 in 10.0 mi SSW 11.5 mph 20.7 mph N/A   Scattered Clouds
1:34 PM 12.7 °F -2.5 °F 1.9 °F 62% 30.08 in 10.0 mi SW 13.8 mph 21.9 mph N/A   Scattered Clouds
1:55 PM 13.1 °F -1.4 °F 2.3 °F 62% 30.06 in 10.0 mi SW 12.7 mph 21.9 mph N/A   Mostly Cloudy
2:14 PM 13.3 °F -0.5 °F 3.7 °F 66% 30.05 in 10.0 mi SW 11.5 mph 19.6 mph N/A   Overcast
2:35 PM 14.2 °F 0.0 °F 5.2 °F 67% 30.04 in 10.0 mi SW 12.7 mph 20.7 mph N/A   Overcast
2:55 PM 14.0 °F 1.2 °F 4.1 °F 65% 30.03 in 10.0 mi SW 10.4 mph 19.6 mph N/A   Overcast
3:14 PM 14.7 °F 2.1 °F 5.7 °F 68% 30.01 in 10.0 mi SW 10.4 mph 17.3 mph N/A   Overcast
3:35 PM 15.6 °F 1.8 °F 6.8 °F 68% 30.00 in 10.0 mi SW 12.7 mph 19.6 mph N/A   Overcast
3:54 PM 15.8 °F 2.7 °F 7.2 °F 69% 29.98 in 10.0 mi SW 11.5 mph 17.3 mph N/A   Overcast
4:14 PM 16.2 °F 5.5 °F 8.4 °F 72% 29.96 in 5.0 mi SW 8.1 mph 16.1 mph N/A Snow Light Snow
4:35 PM 18.3 °F 7.3 °F 14.0 °F 83% 29.94 in 2.0 mi SW 9.2 mph 18.4 mph N/A Snow Light Snow
4:54 PM 19.2 °F 7.0 °F 14.7 °F 83% 29.93 in 1.2 mi SW 11.5 mph 25.3 mph N/A Snow Light Snow
5:15 PM 20.8 °F 3.7 °F 18.5 °F 91% 29.91 in 0.2 mi SSW 25.3 mph 33.4 mph N/A Snow Heavy Snow
5:35 PM 21.7 °F 5.6 °F 19.2 °F 90% 29.89 in 0.5 mi SSW 23.0 mph 34.5 mph N/A Snow Heavy Snow
5:54 PM 22.5 °F 5.0 °F 19.8 °F 89% 29.87 in 0.5 mi South 28.8 mph 39.1 mph N/A Snow Snow
6:15 PM 23.5 °F 6.7 °F 21.2 °F 91% 29.84 in 0.8 mi South 27.6 mph 38.0 mph N/A Snow Snow
6:34 PM 24.3 °F 7.1 °F 20.7 °F 86% 29.81 in 1.0 mi South 29.9 mph 36.8 mph N/A Snow Light Snow
6:55 PM 24.8 °F 7.6 °F 20.8 °F 85% 29.79 in 1.0 mi SSW 31.1 mph 44.9 mph N/A Snow Light Snow
7:15 PM 26.2 °F 9.8 °F 20.8 °F 80% 29.77 in 1.5 mi South 29.9 mph 39.1 mph N/A Snow Light Snow
7:34 PM 26.4 °F 9.1 °F 20.5 °F 78% 29.76 in 1.2 mi South 34.5 mph 43.7 mph N/A Snow Light Snow
7:55 PM 26.8 °F 10.5 °F 21.2 °F 79% 29.74 in 1.2 mi SSW 29.9 mph 47.2 mph N/A Snow Light Snow
8:14 PM 27.1 °F 9.6 °F 22.6 °F 83% 29.74 in 1.2 mi South 36.8 mph 54.1 mph N/A Snow Light Snow
8:34 PM 27.5 °F 10.8 °F 23.0 °F 83% 29.73 in 1.0 mi SSW 33.4 mph 47.2 mph N/A Snow Light Snow
8:55 PM 27.3 °F 11.0 °F 24.1 °F 88% 29.70 in 0.5 mi SSW 31.1 mph 46.0 mph N/A Snow Snow
9:14 PM 27.7 °F 11.8 °F 24.4 °F 88% 29.69 in 0.5 mi SSW 29.9 mph 48.3 mph N/A Snow Snow
9:35 PM 28.0 °F 11.8 °F 25.3 °F 90% 29.68 in 0.5 mi SSW 32.2 mph 44.9 mph N/A Snow Snow
9:54 PM 28.2 °F 11.6 °F 25.2 °F 88% 29.67 in 0.5 mi SSW 34.5 mph 42.6 mph N/A Snow Snow
10:14 PM 28.2 °F 12.0 °F 25.3 °F 89% 29.66 in 0.5 mi SSW 32.2 mph 46.0 mph N/A Snow Snow
10:31 PM 28.0 °F 12.0 °F 25.7 °F 91% 29.67 in 0.8 mi SSW 31.1 mph 44.9 mph N/A Snow Snow
10:46 PM 27.9 °F 12.5 °F 25.0 °F 89% 29.66 in 0.8 mi SSW 27.6 mph 42.6 mph N/A Snow Snow
11:35 PM 27.9 °F 14.0 °F 23.9 °F 85% 29.65 in 1.2 mi SW 21.9 mph 34.5 mph N/A Snow Light Snow
11:54 PM 27.9 °F 12.8 °F 22.8 °F 81% 29.64 in 1.5 mi SW 26.5 mph 40.3 mph N/A Snow Light Snow